Time;durP1;ratioP1;P1;durP2;ratioP2;P2;SDS_P1;SDS_P2;PMS_P1;PMS_P2;Temp;Humidity;BMP_temperature;BMP_pressure;BME280_temperature;BME280_humidity;BME280_pressure;Samples;Min_cycle;Max_cycle;Signal;HPM_P1;HPM_P2
2022/12/21 00:26:57;;;;;;;51.50;32.88;;;8.30;99.90;;;;;;3734283;24;20405;-89
2022/12/21 00:29:23;;;;;;;55.58;33.55;;;8.30;99.90;;;;;;4801606;29;20089;-92
2022/12/21 00:31:59;;;;;;;54.90;33.40;;;8.30;99.90;;;;;;4775079;30;20066;-92
2022/12/21 00:37:03;;;;;;;55.42;33.67;;;8.30;99.90;;;;;;4920021;23;20069;-93
2022/12/21 00:43:02;;;;;;;54.88;31.95;;;8.20;99.90;;;;;;4865499;29;20078;-86
2022/12/21 00:45:28;;;;;;;62.38;33.42;;;8.20;99.90;;;;;;4832998;29;20037;-84
2022/12/21 00:47:54;;;;;;;62.42;33.15;;;8.20;99.90;;;;;;4832851;29;20022;-84
2022/12/21 00:50:20;;;;;;;60.55;33.85;;;8.20;99.90;;;;;;4832835;29;20062;-88
2022/12/21 00:52:47;;;;;;;58.75;33.28;;;8.20;99.90;;;;;;4832667;29;20040;-89
2022/12/21 00:55:13;;;;;;;65.20;35.50;;;8.10;99.90;;;;;;4832851;29;20121;-87
2022/12/21 00:57:40;;;;;;;61.30;34.70;;;8.10;99.90;;;;;;4831164;29;20037;-77
2022/12/21 01:00:14;;;;;;;61.72;35.00;;;8.10;99.90;;;;;;4860115;29;20058;-92
2022/12/21 01:02:41;;;;;;;55.53;34.00;;;8.10;99.90;;;;;;4828596;29;20026;-76
2022/12/21 01:05:07;;;;;;;59.85;34.25;;;8.10;99.90;;;;;;4838461;29;20029;-76
2022/12/21 01:07:34;;;;;;;59.45;34.55;;;8.10;99.90;;;;;;4836963;29;20037;-74
2022/12/21 01:10:00;;;;;;;59.13;32.83;;;8.00;99.90;;;;;;4855019;29;20026;-77
2022/12/21 01:12:27;;;;;;;57.88;33.22;;;8.10;99.90;;;;;;4836507;29;20034;-78
2022/12/21 01:14:53;;;;;;;62.42;33.65;;;8.10;99.90;;;;;;4838977;29;20041;-75
2022/12/21 01:17:19;;;;;;;53.22;31.95;;;8.00;99.90;;;;;;4838225;29;20082;-75
2022/12/21 01:19:48;;;;;;;56.28;32.60;;;8.10;99.90;;;;;;4835701;29;20025;-75
2022/12/21 01:22:17;;;;;;;67.35;34.15;;;8.10;99.90;;;;;;4852909;29;20364;-82
2022/12/21 01:25:12;;;;;;;57.97;34.17;;;8.00;99.90;;;;;;4813559;29;20030;-91
2022/12/21 01:27:39;;;;;;;64.00;35.45;;;8.00;99.90;;;;;;4813405;29;20113;-93
2022/12/21 01:30:06;;;;;;;66.68;35.20;;;8.10;99.90;;;;;;4811834;29;20034;-93
2022/12/21 01:32:38;;;;;;;59.38;33.95;;;8.10;99.90;;;;;;4827318;29;20037;-92
2022/12/21 01:35:08;;;;;;;62.95;33.25;;;8.10;99.90;;;;;;4811804;29;20515;-92
2022/12/21 01:37:34;;;;;;;62.08;34.17;;;8.10;99.90;;;;;;4811717;29;20094;-93
2022/12/21 01:40:03;;;;;;;66.30;35.95;;;8.00;99.90;;;;;;4811947;29;20030;-92
2022/12/21 01:42:29;;;;;;;61.00;34.65;;;8.00;99.90;;;;;;4811806;29;20074;-92
2022/12/21 01:45:14;;;;;;;63.88;35.45;;;7.90;99.90;;;;;;4812002;29;20026;-92
2022/12/21 01:47:57;;;;;;;61.38;36.45;;;8.00;99.90;;;;;;4811748;29;20121;-92
2022/12/21 01:50:39;;;;;;;66.20;35.50;;;8.00;99.90;;;;;;4811605;29;20052;-92
2022/12/21 01:53:27;;;;;;;60.67;34.60;;;8.00;99.90;;;;;;4812270;29;20536;-92
2022/12/21 01:55:57;;;;;;;62.05;36.03;;;8.00;99.90;;;;;;4812447;29;20034;-92
2022/12/21 01:58:29;;;;;;;64.78;34.78;;;8.00;99.90;;;;;;4812495;29;20090;-92
2022/12/21 02:00:59;;;;;;;59.30;33.25;;;8.00;99.90;;;;;;4812635;29;20129;-92
2022/12/21 02:03:32;;;;;;;59.15;33.45;;;8.00;99.90;;;;;;4811987;29;20030;-93
2022/12/21 02:06:14;;;;;;;58.97;32.90;;;8.00;99.90;;;;;;4811562;29;20038;-92
2022/12/21 02:08:41;;;;;;;59.25;34.30;;;8.00;99.90;;;;;;4811505;29;20112;-92
2022/12/21 02:11:09;;;;;;;55.75;32.85;;;8.00;99.90;;;;;;4811480;29;20078;-93
2022/12/21 02:13:36;;;;;;;63.05;34.95;;;8.10;99.90;;;;;;4811473;29;20034;-93
2022/12/21 02:16:30;;;;;;;60.45;34.72;;;8.00;99.90;;;;;;4811997;29;20091;-92
2022/12/21 02:19:24;;;;;;;62.75;33.90;;;8.00;99.90;;;;;;4800705;29;20109;-92
2022/12/21 02:22:21;;;;;;;58.42;34.58;;;8.00;99.90;;;;;;4811747;29;20034;-93
2022/12/21 02:25:13;;;;;;;60.72;33.83;;;8.00;99.90;;;;;;4810990;29;20034;-93
2022/12/21 02:27:40;;;;;;;61.08;34.08;;;8.00;99.90;;;;;;4812268;29;20038;-93
2022/12/21 02:30:29;;;;;;;64.63;34.03;;;7.90;99.90;;;;;;4817024;29;20037;-93
2022/12/21 02:33:11;;;;;;;57.22;32.33;;;7.80;99.90;;;;;;4837074;29;20097;-92
2022/12/21 02:36:33;;;;;;;53.67;31.58;;;7.80;99.90;;;;;;4830062;29;20034;-92
2022/12/21 02:39:25;;;;;;;52.72;30.48;;;7.80;99.90;;;;;;4795304;29;20046;-91
2022/12/21 02:42:03;;;;;;;55.67;32.10;;;7.90;99.90;;;;;;4844418;29;20124;-92
2022/12/21 02:44:56;;;;;;;51.63;30.70;;;7.90;99.90;;;;;;4845015;29;20034;-92
2022/12/21 02:47:46;;;;;;;59.50;33.03;;;8.00;99.90;;;;;;4844776;29;20125;-93
2022/12/21 02:50:15;;;;;;;58.38;31.90;;;8.00;99.90;;;;;;4844775;29;20041;-91
2022/12/21 02:52:57;;;;;;;57.85;32.65;;;7.90;99.90;;;;;;4844627;29;20176;-92
2022/12/21 02:55:27;;;;;;;62.60;32.22;;;8.00;99.90;;;;;;4844460;29;20030;-92
2022/12/21 02:58:15;;;;;;;54.28;31.55;;;7.90;99.90;;;;;;4844405;29;20068;-91
2022/12/21 03:01:16;;;;;;;66.93;34.15;;;7.90;99.90;;;;;;4844504;29;20116;-92
2022/12/21 03:03:56;;;;;;;65.32;33.80;;;7.90;99.90;;;;;;4815913;29;20037;-92
2022/12/21 03:06:53;;;;;;;63.20;34.05;;;7.90;99.90;;;;;;4843892;29;20552;-92
2022/12/21 03:09:28;;;;;;;57.53;31.58;;;7.90;99.90;;;;;;4843895;29;20488;-91
2022/12/21 03:12:22;;;;;;;62.42;34.53;;;7.90;99.90;;;;;;4829115;29;20045;-92
2022/12/21 03:14:55;;;;;;;61.13;33.63;;;7.90;99.90;;;;;;4813868;29;20496;-91
2022/12/21 03:18:04;;;;;;;60.23;32.10;;;7.90;99.90;;;;;;4844186;29;20488;-92
2022/12/21 03:20:52;;;;;;;60.13;32.63;;;8.00;99.90;;;;;;4753904;30;20040;-92
2022/12/21 03:23:31;;;;;;;57.72;30.95;;;8.00;99.90;;;;;;4753191;30;20488;-91
2022/12/21 03:26:28;;;;;;;60.78;32.67;;;8.00;99.90;;;;;;4753312;30;20101;-91
2022/12/21 03:28:57;;;;;;;55.28;32.35;;;8.00;99.90;;;;;;4767837;30;20097;-93
2022/12/21 03:31:29;;;;;;;64.60;35.13;;;8.00;99.90;;;;;;4754122;30;20518;-93
2022/12/21 03:34:12;;;;;;;67.70;33.25;;;7.90;99.90;;;;;;4753253;30;20486;-90
2022/12/21 03:37:05;;;;;;;65.18;33.67;;;8.00;99.90;;;;;;4753212;30;20036;-92
2022/12/21 03:39:36;;;;;;;60.70;32.53;;;8.00;99.90;;;;;;4737720;30;20044;-91
2022/12/21 03:42:13;;;;;;;65.85;33.10;;;8.00;99.90;;;;;;4752811;30;20109;-91
2022/12/21 03:44:48;;;;;;;67.65;33.40;;;8.10;99.90;;;;;;4738339;30;20040;-92
2022/12/21 03:47:24;;;;;;;66.18;33.85;;;8.10;99.90;;;;;;4738053;30;20094;-91
2022/12/21 03:50:10;;;;;;;58.70;32.50;;;8.20;99.90;;;;;;4723427;30;20075;-92
2022/12/21 03:52:42;;;;;;;59.05;31.85;;;8.20;99.90;;;;;;4737972;30;20526;-91
2022/12/21 03:55:21;;;;;;;59.40;32.00;;;8.20;99.90;;;;;;4738186;30;20036;-91
2022/12/21 03:57:53;;;;;;;62.17;33.30;;;8.20;99.90;;;;;;4794894;29;20599;-93
2022/12/21 04:00:20;;;;;;;50.15;28.67;;;8.20;99.90;;;;;;4843339;29;20073;-90
2022/12/21 04:03:11;;;;;;;63.28;33.40;;;8.20;99.90;;;;;;4843057;29;20026;-91
2022/12/21 04:05:55;;;;;;;55.70;32.20;;;8.20;99.90;;;;;;4843609;29;20033;-92
2022/12/21 04:08:24;;;;;;;61.47;31.02;;;8.30;99.90;;;;;;4843474;29;20030;-91
2022/12/21 04:10:52;;;;;;;64.78;33.25;;;8.30;99.90;;;;;;4842931;29;20116;-91
2022/12/21 04:13:19;;;;;;;68.60;31.98;;;8.30;99.90;;;;;;4843378;29;20041;-92
2022/12/21 04:16:05;;;;;;;71.82;34.95;;;8.30;99.90;;;;;;4843557;29;20062;-92
2022/12/21 04:21:19;;;;;;;71.57;31.63;;;8.30;99.90;;;;;;4844315;29;20029;-93
2022/12/21 04:29:29;;;;;;;66.72;35.47;;;8.30;99.90;;;;;;4845915;29;20396;-91
2022/12/21 04:32:35;;;;;;;59.47;32.20;;;8.30;99.90;;;;;;4852609;29;20038;-93
2022/12/21 04:35:08;;;;;;;65.75;33.42;;;8.30;99.90;;;;;;4846159;29;20038;-92
2022/12/21 04:37:38;;;;;;;68.13;34.00;;;8.30;99.90;;;;;;4844720;29;20030;-92
2022/12/21 04:40:06;;;;;;;65.72;33.63;;;8.30;99.90;;;;;;4831438;29;20071;-92
2022/12/21 04:42:38;;;;;;;62.35;32.55;;;8.40;99.90;;;;;;4842538;29;20078;-91
2022/12/21 04:45:07;;;;;;;61.08;33.05;;;8.30;99.90;;;;;;4845142;29;20014;-92
2022/12/21 04:47:33;;;;;;;58.70;30.33;;;8.30;99.90;;;;;;4846411;29;20025;-92
2022/12/21 04:50:00;;;;;;;64.97;33.20;;;8.30;99.90;;;;;;4841516;29;20038;-90
2022/12/21 04:52:26;;;;;;;63.58;33.58;;;8.30;99.90;;;;;;4841707;29;20119;-92
2022/12/21 04:54:53;;;;;;;67.93;33.67;;;8.30;99.90;;;;;;4841665;29;20037;-91
2022/12/21 04:57:23;;;;;;;68.15;32.63;;;8.30;99.90;;;;;;4841702;29;20532;-92
2022/12/21 04:59:53;;;;;;;65.30;32.55;;;8.30;99.90;;;;;;4841700;29;20038;-91
2022/12/21 05:02:20;;;;;;;65.93;33.50;;;8.30;99.90;;;;;;4841791;29;20034;-91
2022/12/21 05:04:47;;;;;;;65.68;33.45;;;8.30;99.90;;;;;;4841683;29;20117;-92
2022/12/21 05:07:13;;;;;;;59.58;32.05;;;8.20;99.90;;;;;;4841697;29;20029;-91
2022/12/21 05:09:40;;;;;;;60.35;31.15;;;8.20;99.90;;;;;;4839139;29;20038;-90
2022/12/21 05:12:06;;;;;;;58.15;31.67;;;8.20;99.90;;;;;;4811807;29;20046;-90
2022/12/21 05:14:32;;;;;;;60.92;32.63;;;8.10;99.90;;;;;;4811375;29;20057;-91
2022/12/21 05:16:59;;;;;;;60.88;33.10;;;8.10;99.90;;;;;;4829058;29;20130;-91
2022/12/21 05:19:25;;;;;;;54.88;29.98;;;8.10;99.90;;;;;;4811440;29;20483;-88
2022/12/21 05:21:52;;;;;;;58.95;31.58;;;8.10;99.90;;;;;;4823515;29;20042;-90
2022/12/21 05:24:18;;;;;;;56.33;31.42;;;8.00;99.90;;;;;;4828586;29;20057;-91
2022/12/21 05:26:45;;;;;;;65.63;33.25;;;8.00;99.90;;;;;;4811403;29;20038;-91
2022/12/21 05:29:11;;;;;;;56.20;30.35;;;8.00;99.90;;;;;;4811903;29;20552;-91
2022/12/21 05:31:38;;;;;;;57.58;31.98;;;8.00;99.90;;;;;;4812077;29;20038;-92
2022/12/21 05:34:08;;;;;;;63.83;31.98;;;7.90;99.90;;;;;;4811099;29;20061;-92
2022/12/21 05:36:34;;;;;;;67.07;33.47;;;8.00;99.90;;;;;;4814602;29;20515;-92
2022/12/21 05:39:01;;;;;;;63.00;31.80;;;7.90;99.90;;;;;;4811910;29;20441;-92
2022/12/21 05:41:28;;;;;;;56.65;30.48;;;7.90;99.90;;;;;;4755587;29;1689216;-91
2022/12/21 05:43:55;;;;;;;65.15;32.85;;;7.90;99.90;;;;;;4832983;29;20037;-93
2022/12/21 05:46:24;;;;;;;60.15;32.28;;;7.90;99.90;;;;;;4827328;29;20034;-92
2022/12/21 05:48:53;;;;;;;57.85;30.75;;;7.90;99.90;;;;;;4842051;29;20032;-93
2022/12/21 05:51:20;;;;;;;66.53;33.30;;;7.80;99.90;;;;;;4814184;29;20041;-93
2022/12/21 05:53:46;;;;;;;55.30;30.33;;;7.80;99.90;;;;;;4819436;29;20021;-92
2022/12/21 05:56:13;;;;;;;68.00;33.50;;;7.70;99.90;;;;;;4831831;29;20076;-92
2022/12/21 05:58:40;;;;;;;61.60;30.45;;;7.70;99.90;;;;;;4830868;29;20032;-89
2022/12/21 06:01:09;;;;;;;70.93;32.65;;;7.60;99.90;;;;;;4832366;29;20116;-93
2022/12/21 06:03:37;;;;;;;66.45;32.47;;;7.60;99.90;;;;;;4834399;29;20025;-90
2022/12/21 06:06:15;;;;;;;60.28;31.85;;;7.60;99.90;;;;;;4836774;29;20033;-93
2022/12/21 06:08:43;;;;;;;57.67;30.27;;;7.60;99.90;;;;;;4834183;29;20030;-91
2022/12/21 06:11:15;;;;;;;59.33;30.15;;;7.60;99.90;;;;;;4990436;23;20058;-92
2022/12/21 06:13:43;;;;;;;60.53;32.40;;;7.70;99.90;;;;;;4830143;29;20061;-92
2022/12/21 06:16:17;;;;;;;63.53;30.73;;;7.70;99.90;;;;;;4829714;29;20512;-92
2022/12/21 06:18:45;;;;;;;70.45;31.70;;;7.70;99.90;;;;;;4829959;29;20120;-92
2022/12/21 06:21:15;;;;;;;76.20;34.33;;;7.70;99.90;;;;;;4815187;29;20392;-93
2022/12/21 06:23:42;;;;;;;68.07;32.25;;;7.80;99.90;;;;;;4829616;29;20030;-92
2022/12/21 06:26:21;;;;;;;65.28;32.25;;;7.80;99.90;;;;;;4819336;29;20029;-93
2022/12/21 06:29:40;;;;;;;64.15;30.50;;;7.80;99.90;;;;;;4805341;29;20039;-93
2022/12/21 06:32:07;;;;;;;66.32;29.70;;;7.90;99.90;;;;;;4818260;29;20429;-93
2022/12/21 06:34:37;;;;;;;67.15;31.85;;;8.00;99.90;;;;;;4816384;29;20113;-91
2022/12/21 07:07:55;;;;;;;34.55;21.52;;;10.20;99.90;;;;;;5351201;23;20127;-81
2022/12/21 07:10:21;;;;;;;32.15;22.73;;;10.40;99.90;;;;;;4847015;29;20049;-83
2022/12/21 07:12:48;;;;;;;30.63;21.45;;;10.50;99.90;;;;;;4846619;29;20032;-81
2022/12/21 07:15:14;;;;;;;33.95;22.17;;;10.70;99.90;;;;;;4846375;29;20034;-80
2022/12/21 07:17:41;;;;;;;35.17;25.08;;;10.80;99.90;;;;;;4846439;29;20022;-80
2022/12/21 07:20:07;;;;;;;31.67;25.55;;;10.70;99.90;;;;;;4842965;29;20033;-80
2022/12/21 07:22:33;;;;;;;33.80;25.33;;;10.70;99.90;;;;;;4836161;29;20041;-81
2022/12/21 07:25:00;;;;;;;34.08;24.75;;;10.80;99.90;;;;;;4830887;29;20033;-83
2022/12/21 07:27:26;;;;;;;36.88;25.23;;;10.90;99.90;;;;;;4830834;29;20037;-83
2022/12/21 07:29:56;;;;;;;29.45;24.27;;;10.90;99.90;;;;;;4845873;29;20041;-82
2022/12/21 07:32:22;;;;;;;30.83;25.23;;;11.00;99.90;;;;;;4845976;29;20029;-82
2022/12/21 07:34:48;;;;;;;29.95;24.58;;;11.10;99.90;;;;;;4846452;29;20140;-83
2022/12/21 07:37:19;;;;;;;35.08;27.05;;;11.20;99.90;;;;;;4862619;29;20435;-83
2022/12/21 07:39:50;;;;;;;33.38;27.42;;;11.20;99.90;;;;;;4862369;29;20042;-84
2022/12/21 07:42:16;;;;;;;32.28;26.85;;;11.30;99.90;;;;;;4862261;29;20376;-83
2022/12/21 07:44:58;;;;;;;28.20;24.95;;;11.40;99.90;;;;;;4845797;29;20207;-83
2022/12/21 07:47:33;;;;;;;33.38;25.40;;;11.50;99.90;;;;;;4845703;29;20037;-83
2022/12/21 07:50:00;;;;;;;33.42;27.23;;;11.80;99.90;;;;;;4845396;29;20041;-83
2022/12/21 07:52:26;;;;;;;31.52;26.30;;;12.10;99.90;;;;;;4830234;29;20036;-83
2022/12/21 07:54:52;;;;;;;38.05;25.83;;;12.20;99.90;;;;;;4828979;29;20116;-82
2022/12/21 07:57:18;;;;;;;30.90;25.50;;;12.40;99.90;;;;;;4831122;29;20491;-85
2022/12/21 07:59:45;;;;;;;34.58;25.20;;;12.30;99.90;;;;;;4829684;29;20082;-82
2022/12/21 08:02:11;;;;;;;30.40;22.35;;;12.30;99.90;;;;;;4828929;29;20447;-82
2022/12/21 08:04:37;;;;;;;27.73;23.10;;;12.30;99.90;;;;;;4829175;29;20038;-82
2022/12/21 08:07:05;;;;;;;39.17;24.92;;;12.30;99.90;;;;;;4861624;29;20049;-82
2022/12/21 08:09:33;;;;;;;28.70;22.60;;;12.30;99.90;;;;;;4828922;29;20030;-82
2022/12/21 08:12:00;;;;;;;31.58;22.85;;;12.50;99.90;;;;;;4844627;29;20034;-82
2022/12/21 08:14:26;;;;;;;26.58;21.52;;;12.60;99.90;;;;;;4860237;29;20108;-83
2022/12/21 08:16:52;;;;;;;34.88;23.52;;;12.60;99.90;;;;;;4843920;29;20498;-83
2022/12/21 08:19:19;;;;;;;30.85;22.55;;;12.70;99.90;;;;;;4828918;29;20036;-82
2022/12/21 08:21:45;;;;;;;29.80;22.23;;;12.80;99.90;;;;;;4860845;29;20038;-82
2022/12/21 08:24:12;;;;;;;26.27;22.20;;;12.90;99.90;;;;;;4844585;29;20025;-82
2022/12/21 08:26:38;;;;;;;29.92;23.08;;;13.00;99.90;;;;;;4860318;29;20034;-81
2022/12/21 08:29:05;;;;;;;32.50;22.73;;;13.20;99.90;;;;;;4829495;29;20030;-83
2022/12/21 08:31:31;;;;;;;30.08;21.88;;;13.30;99.90;;;;;;4844606;29;20101;-82
2022/12/21 08:33:58;;;;;;;33.75;22.50;;;13.30;99.90;;;;;;4844814;29;20025;-82
2022/12/21 08:36:25;;;;;;;29.85;21.20;;;13.30;99.90;;;;;;4844750;29;20438;-82
2022/12/21 08:38:53;;;;;;;35.85;23.50;;;13.40;99.90;;;;;;4829468;29;20029;-82
2022/12/21 08:41:19;;;;;;;28.58;20.65;;;13.60;99.90;;;;;;4829741;29;20037;-82
2022/12/21 08:43:45;;;;;;;32.22;22.30;;;13.60;99.90;;;;;;4829681;29;20030;-82
2022/12/21 08:46:12;;;;;;;35.17;21.63;;;13.50;99.90;;;;;;4861836;29;20025;-82
2022/12/21 08:48:38;;;;;;;29.20;19.98;;;13.60;99.90;;;;;;4861310;29;20059;-82
2022/12/21 08:51:09;;;;;;;22.70;18.77;;;13.70;99.90;;;;;;4844581;29;20048;-84
2022/12/21 08:53:36;;;;;;;25.50;17.85;;;13.70;99.90;;;;;;4829920;29;20106;-83
2022/12/21 08:56:04;;;;;;;23.20;19.55;;;13.80;99.90;;;;;;4829562;29;20041;-86
2022/12/21 08:58:31;;;;;;;24.58;20.02;;;13.90;99.90;;;;;;4829703;29;20030;-84
2022/12/21 09:00:57;;;;;;;25.17;20.55;;;14.10;99.90;;;;;;4844005;29;20032;-86
2022/12/21 09:03:26;;;;;;;19.77;15.30;;;14.30;99.90;;;;;;4829515;29;20487;-84
2022/12/21 09:05:57;;;;;;;13.85;12.18;;;14.20;99.90;;;;;;4844407;29;20049;-83
2022/12/21 09:08:24;;;;;;;14.57;13.10;;;14.20;99.90;;;;;;4841237;29;20053;-85
2022/12/21 09:11:01;;;;;;;14.95;12.77;;;14.10;99.90;;;;;;4826333;29;20137;-84
2022/12/21 09:13:27;;;;;;;16.38;14.70;;;14.10;99.90;;;;;;4826053;29;20034;-83
2022/12/21 09:15:54;;;;;;;14.10;12.90;;;14.20;99.90;;;;;;4826043;29;20041;-83
2022/12/21 09:18:21;;;;;;;13.98;12.68;;;14.10;99.90;;;;;;4826303;29;20090;-83
2022/12/21 09:20:47;;;;;;;12.98;11.93;;;14.10;99.90;;;;;;4841648;29;20094;-83
2022/12/21 09:23:13;;;;;;;14.18;12.13;;;14.20;99.90;;;;;;4841501;29;20041;-83
2022/12/21 09:25:40;;;;;;;14.80;13.35;;;14.20;99.90;;;;;;4840941;29;20041;-84
2022/12/21 09:28:07;;;;;;;13.68;12.45;;;14.30;99.90;;;;;;4826599;29;20030;-84
2022/12/21 09:30:33;;;;;;;15.82;13.52;;;14.50;99.90;;;;;;4826347;29;20069;-83
2022/12/21 09:32:59;;;;;;;14.93;13.32;;;14.60;99.90;;;;;;4826659;29;20396;-83
2022/12/21 09:35:26;;;;;;;13.98;12.57;;;14.80;99.90;;;;;;4826361;29;20073;-84
2022/12/21 09:37:52;;;;;;;14.65;13.18;;;14.80;99.90;;;;;;4828213;29;20495;-84
2022/12/21 09:40:21;;;;;;;16.15;14.48;;;15.00;99.90;;;;;;4829535;29;20030;-85
2022/12/21 09:43:18;;;;;;;15.32;13.93;;;15.10;99.90;;;;;;4844648;29;20461;-83
2022/12/21 09:46:09;;;;;;;15.30;14.05;;;15.00;99.90;;;;;;4829500;29;20030;-83
2022/12/21 09:48:52;;;;;;;15.88;14.48;;;15.10;99.90;;;;;;4845508;29;20041;-90
2022/12/21 09:51:25;;;;;;;17.80;16.15;;;15.50;99.90;;;;;;4830108;29;20549;-91
2022/12/21 09:54:03;;;;;;;16.77;15.30;;;15.60;99.90;;;;;;4830315;29;20086;-89
2022/12/21 09:56:30;;;;;;;17.10;15.48;;;15.70;99.90;;;;;;4830538;29;20487;-91
2022/12/21 09:59:04;;;;;;;16.10;14.85;;;15.40;99.90;;;;;;4830048;29;20037;-89
2022/12/21 10:01:33;;;;;;;15.90;14.38;;;15.00;99.90;;;;;;4845173;29;20034;-92
2022/12/21 10:04:11;;;;;;;13.77;12.77;;;14.60;99.90;;;;;;4829785;29;20128;-92
2022/12/21 10:07:23;;;;;;;15.15;13.70;;;14.50;99.90;;;;;;4844978;29;20065;-89
2022/12/21 10:10:15;;;;;;;15.27;13.90;;;14.60;99.90;;;;;;4830141;29;20045;-92
2022/12/21 10:13:16;;;;;;;15.45;14.10;;;14.80;99.90;;;;;;4829946;29;20108;-90
2022/12/21 10:16:32;;;;;;;15.20;14.00;;;15.00;99.90;;;;;;4829980;29;20062;-92
2022/12/21 10:19:30;;;;;;;16.02;14.80;;;15.10;99.90;;;;;;4826573;29;20077;-89
2022/12/21 10:22:24;;;;;;;15.77;14.57;;;15.10;99.90;;;;;;4829973;29;20117;-91
2022/12/21 10:24:58;;;;;;;16.48;15.18;;;14.90;99.90;;;;;;4829844;29;20037;-91
2022/12/21 10:27:57;;;;;;;16.13;14.70;;;14.70;99.90;;;;;;4829652;29;20076;-90
2022/12/21 10:30:24;;;;;;;16.70;15.50;;;14.70;99.90;;;;;;4806445;29;20133;-89
2022/12/21 10:32:50;;;;;;;15.82;14.45;;;14.60;99.90;;;;;;4829314;29;20085;-90
2022/12/21 10:35:33;;;;;;;15.00;13.80;;;14.50;99.90;;;;;;4829568;29;20029;-92
2022/12/21 10:38:00;;;;;;;15.13;13.82;;;14.40;99.90;;;;;;4829438;29;20030;-91
2022/12/21 10:40:29;;;;;;;15.25;13.95;;;14.30;99.90;;;;;;4829409;29;20532;-90
2022/12/21 10:42:57;;;;;;;15.13;14.02;;;14.30;99.90;;;;;;4829820;29;20124;-93
2022/12/21 10:45:24;;;;;;;15.73;14.52;;;14.60;99.90;;;;;;4829482;29;20034;-91
2022/12/21 10:47:51;;;;;;;16.25;15.00;;;15.00;99.90;;;;;;4828965;29;20033;-91
2022/12/21 10:50:21;;;;;;;17.63;16.25;;;15.00;99.90;;;;;;4828618;29;20038;-89
2022/12/21 10:52:52;;;;;;;18.50;16.58;;;15.20;99.90;;;;;;4829361;29;20042;-90
2022/12/21 10:55:30;;;;;;;16.85;15.75;;;15.60;99.90;;;;;;4829622;29;20038;-91
2022/12/21 10:58:18;;;;;;;18.42;16.85;;;15.30;99.90;;;;;;4829578;29;20038;-91
2022/12/21 11:01:16;;;;;;;17.08;15.82;;;15.10;99.90;;;;;;4813956;29;20034;-90
2022/12/21 11:03:42;;;;;;;17.90;16.38;;;14.90;99.90;;;;;;4829618;29;20041;-90
2022/12/21 11:06:19;;;;;;;21.10;19.00;;;15.00;99.90;;;;;;4829238;29;20457;-90
2022/12/21 11:08:51;;;;;;;19.15;17.65;;;15.10;99.90;;;;;;4828800;29;20061;-91
2022/12/21 11:11:34;;;;;;;17.40;16.13;;;15.40;99.90;;;;;;4828882;29;20058;-90
2022/12/21 11:14:14;;;;;;;18.60;17.00;;;15.40;99.90;;;;;;4828918;29;20061;-90
2022/12/21 11:16:41;;;;;;;17.98;16.67;;;15.40;99.90;;;;;;4846361;29;20026;-90
2022/12/21 11:19:20;;;;;;;18.08;16.48;;;15.30;99.90;;;;;;4859769;29;20066;-91
2022/12/21 11:21:57;;;;;;;18.55;16.80;;;15.30;99.90;;;;;;4853630;29;20106;-90
2022/12/21 11:24:39;;;;;;;17.73;16.10;;;15.30;99.90;;;;;;4828947;29;20042;-91
2022/12/21 11:27:11;;;;;;;17.60;16.00;;;15.20;99.90;;;;;;4828805;29;20026;-90
2022/12/21 11:29:58;;;;;;;16.45;15.07;;;15.10;99.90;;;;;;4828580;29;20499;-89
2022/12/21 11:32:26;;;;;;;16.52;14.93;;;14.90;99.90;;;;;;4828781;29;20036;-91
2022/12/21 11:35:00;;;;;;;15.93;14.52;;;14.80;99.90;;;;;;4828479;29;20030;-90
2022/12/21 11:37:35;;;;;;;16.50;15.03;;;14.70;99.90;;;;;;4828923;29;20034;-90
2022/12/21 11:40:11;;;;;;;15.27;13.98;;;14.70;99.90;;;;;;4813546;29;20165;-92
2022/12/21 11:42:59;;;;;;;16.33;14.73;;;14.50;99.90;;;;;;4828731;29;20034;-90
2022/12/21 11:45:55;;;;;;;15.15;13.95;;;14.50;99.90;;;;;;4829004;29;20037;-89
2022/12/21 11:48:40;;;;;;;16.58;15.18;;;14.40;99.90;;;;;;4828348;29;20030;-91
2022/12/21 11:51:31;;;;;;;15.15;13.95;;;14.50;99.90;;;;;;4828446;29;20056;-90
2022/12/21 11:54:11;;;;;;;16.10;14.70;;;14.40;99.90;;;;;;4828452;29;20555;-90
2022/12/21 11:56:46;;;;;;;15.95;14.30;;;14.30;99.90;;;;;;4828064;29;20409;-92
2022/12/21 11:59:43;;;;;;;19.02;17.42;;;14.30;99.90;;;;;;4828189;29;20045;-90
2022/12/21 12:02:28;;;;;;;17.27;15.63;;;14.50;99.90;;;;;;4809884;29;20077;-92
2022/12/21 12:05:00;;;;;;;17.05;15.68;;;14.70;99.90;;;;;;4828368;29;20098;-91
2022/12/21 12:08:00;;;;;;;17.42;16.02;;;15.00;99.90;;;;;;4828182;29;20046;-91
2022/12/21 12:10:47;;;;;;;16.13;14.73;;;15.30;99.90;;;;;;4828317;29;20053;-91
2022/12/21 12:13:27;;;;;;;17.15;15.85;;;15.60;99.90;;;;;;4828109;29;20034;-93
2022/12/21 12:16:12;;;;;;;18.58;17.00;;;15.80;99.90;;;;;;4813103;29;20038;-90
2022/12/21 12:18:54;;;;;;;17.92;16.52;;;15.90;99.90;;;;;;4828507;29;20144;-92
2022/12/21 12:22:09;;;;;;;18.42;16.88;;;15.80;99.90;;;;;;4828488;29;20038;-91
2022/12/21 12:25:17;;;;;;;17.33;16.02;;;15.40;99.90;;;;;;4723592;30;20040;-89
2022/12/21 12:28:05;;;;;;;16.08;14.68;;;15.20;99.90;;;;;;4724121;30;20036;-92
2022/12/21 12:31:07;;;;;;;16.35;15.13;;;14.90;99.90;;;;;;4834070;29;20137;-90
2022/12/21 12:33:44;;;;;;;19.80;17.80;;;14.80;99.90;;;;;;4827652;29;20034;-90
2022/12/21 12:36:38;;;;;;;21.50;19.35;;;14.80;99.90;;;;;;4827895;29;20066;-89
2022/12/21 12:39:27;;;;;;;18.70;17.20;;;15.10;99.90;;;;;;4827933;29;20409;-90
2022/12/21 12:42:01;;;;;;;17.80;16.33;;;15.30;99.90;;;;;;4800831;29;20314;-91
2022/12/21 12:44:41;;;;;;;18.95;17.17;;;15.50;99.90;;;;;;4828120;29;20041;-91
2022/12/21 12:47:14;;;;;;;19.30;17.58;;;15.60;99.90;;;;;;4827699;29;20049;-91
2022/12/21 12:50:04;;;;;;;19.00;17.30;;;15.70;99.90;;;;;;4828015;29;20065;-90
2022/12/21 12:53:17;;;;;;;19.58;17.77;;;15.60;99.90;;;;;;4842872;29;20041;-90
2022/12/21 12:56:23;;;;;;;17.00;15.70;;;15.60;99.90;;;;;;4737461;30;20036;-91
2022/12/21 12:58:58;;;;;;;18.08;16.52;;;15.60;99.90;;;;;;4827879;29;20124;-91
2022/12/21 13:08:24;;;;;;;16.70;15.35;;;14.90;99.90;;;;;;4833072;29;20065;-92
2022/12/21 13:11:24;;;;;;;15.55;14.25;;;14.60;99.90;;;;;;4813948;29;20050;-93
2022/12/21 13:14:30;;;;;;;15.95;14.65;;;14.50;99.90;;;;;;4824470;24;20050;-91
2022/12/21 13:19:43;;;;;;;15.77;14.60;;;14.10;99.90;;;;;;5129172;27;20331;-93
2022/12/21 13:22:16;;;;;;;17.38;15.88;;;14.20;99.90;;;;;;5088159;22;20034;-93
2022/12/21 14:01:49;;;;;;;17.17;15.52;;;14.50;99.90;;;;;;4947895;29;20474;-91
2022/12/21 14:04:31;;;;;;;15.80;14.57;;;14.30;99.90;;;;;;4933185;29;20389;-92
2022/12/21 14:07:33;;;;;;;16.08;14.65;;;14.20;99.90;;;;;;4936729;29;20055;-94
2022/12/21 14:13:01;;;;;;;17.50;15.90;;;14.10;99.90;;;;;;5001686;23;20062;-94
2022/12/21 14:15:58;;;;;;;15.55;14.15;;;14.00;99.90;;;;;;4961609;28;20050;-94
2022/12/21 14:18:32;;;;;;;16.40;14.90;;;13.90;99.90;;;;;;4963904;28;20127;-95
2022/12/21 14:21:24;;;;;;;15.70;14.38;;;13.80;99.90;;;;;;4961416;28;20460;-93
2022/12/21 14:23:56;;;;;;;16.40;14.85;;;13.80;99.90;;;;;;4940067;29;20082;-94
2022/12/21 14:26:51;;;;;;;16.30;14.75;;;13.70;99.90;;;;;;4940685;29;20035;-94
2022/12/21 14:29:32;;;;;;;16.60;15.10;;;13.60;99.90;;;;;;4938167;29;20178;-94
2022/12/21 14:32:10;;;;;;;15.60;14.10;;;13.60;99.90;;;;;;4928222;29;20067;-94
2022/12/21 14:34:51;;;;;;;15.45;13.98;;;13.50;99.90;;;;;;4926668;29;20127;-94
2022/12/21 14:37:38;;;;;;;16.17;14.57;;;13.50;99.90;;;;;;4928147;29;20481;-95
2022/12/21 14:46:32;;;;;;;15.65;14.13;;;13.50;99.90;;;;;;4942401;28;20086;-93
2022/12/21 14:49:23;;;;;;;17.83;15.00;;;13.40;99.90;;;;;;4943690;29;20027;-94
2022/12/21 14:56:01;;;;;;;19.17;13.75;;;13.20;99.90;;;;;;4893542;29;20058;-94
2022/12/21 15:27:02;;;;;;;19.40;16.73;;;12.30;99.90;;;;;;4936674;29;20115;-94
2022/12/21 15:29:53;;;;;;;23.60;19.73;;;12.30;99.90;;;;;;4904900;29;20036;-94
2022/12/21 15:32:40;;;;;;;22.23;18.85;;;12.20;99.90;;;;;;4885702;29;20051;-94
2022/12/21 15:35:55;;;;;;;21.88;18.98;;;12.20;99.90;;;;;;4916973;29;20045;-94
2022/12/21 15:38:55;;;;;;;22.23;18.58;;;12.20;99.90;;;;;;4882243;29;20120;-94
2022/12/21 15:42:12;;;;;;;21.70;17.52;;;12.30;99.90;;;;;;4878745;29;20038;-94
2022/12/21 15:44:56;;;;;;;23.83;19.05;;;12.20;99.90;;;;;;4845813;29;20033;-94
2022/12/21 15:47:56;;;;;;;26.42;18.45;;;12.20;99.90;;;;;;4875176;29;20461;-95
2022/12/21 15:50:39;;;;;;;22.75;17.13;;;12.20;99.90;;;;;;4874951;29;20097;-94
2022/12/21 15:57:05;;;;;;;21.48;17.60;;;12.00;99.90;;;;;;5548016;23;20054;-93
2022/12/21 15:59:50;;;;;;;26.00;19.42;;;11.80;99.90;;;;;;4848027;29;20035;-94